createdAt,value
2019-05-26T00:00:39.180Z,36.22
2019-05-26T00:01:39.170Z,35.92
2019-05-26T00:02:39.157Z,36.00
2019-05-26T00:03:39.148Z,35.92
2019-05-26T00:04:39.135Z,36.12
2019-05-26T00:05:39.130Z,36.12
2019-05-26T00:06:39.113Z,36.12
2019-05-26T00:07:39.101Z,35.33
2019-05-26T00:08:39.090Z,35.72
2019-05-26T00:09:39.079Z,35.82
2019-05-26T00:10:39.069Z,35.82
2019-05-26T00:11:39.064Z,36.32
2019-05-26T00:12:39.044Z,35.92
2019-05-26T00:13:39.034Z,35.80
2019-05-26T00:14:39.024Z,36.12
2019-05-26T00:15:39.012Z,35.92
2019-05-26T00:16:39.006Z,35.82
2019-05-26T00:17:38.996Z,35.82
2019-05-26T00:18:38.978Z,36.10
2019-05-26T00:19:38.971Z,35.92
2019-05-26T00:20:38.960Z,35.92
2019-05-26T00:21:38.947Z,36.02
2019-05-26T00:22:38.933Z,35.33
2019-05-26T00:23:38.959Z,35.92
2019-05-26T00:24:38.910Z,35.33
2019-05-26T00:25:38.912Z,35.82
2019-05-26T00:26:38.888Z,36.12
2019-05-26T00:27:38.877Z,35.92
2019-05-26T00:28:38.867Z,35.92
2019-05-26T00:29:38.886Z,35.92
2019-05-26T00:30:38.846Z,36.32
2019-05-26T00:31:38.834Z,36.12
2019-05-26T00:32:38.820Z,35.82
2019-05-26T00:33:38.808Z,35.92
2019-05-26T00:34:38.797Z,36.02
2019-05-26T00:35:38.809Z,35.13
2019-05-26T00:36:38.777Z,35.92
2019-05-26T00:37:49.186Z,36.02
2019-05-26T00:38:39.751Z,35.92
2019-05-26T00:39:38.742Z,36.02
2019-05-26T00:40:38.730Z,35.22
2019-05-26T00:41:38.726Z,35.92
2019-05-26T00:42:38.708Z,35.92
2019-05-26T00:43:38.697Z,35.92
2019-05-26T00:44:38.684Z,35.92
2019-05-26T00:45:38.673Z,35.82
2019-05-26T00:46:38.664Z,36.32
2019-05-26T00:47:38.657Z,35.92
2019-05-26T00:48:38.640Z,36.02
2019-05-26T00:49:38.629Z,35.92
2019-05-26T00:50:38.617Z,36.02
2019-05-26T00:51:38.607Z,35.92
2019-05-26T00:52:38.594Z,35.92
2019-05-26T00:53:38.590Z,35.92
2019-05-26T00:54:38.572Z,36.22
2019-05-26T00:55:38.561Z,35.92
2019-05-26T00:56:38.553Z,35.42
2019-05-26T00:57:38.540Z,36.02
2019-05-26T00:58:38.529Z,35.82
2019-05-26T00:59:38.522Z,35.92
2019-05-26T01:00:38.511Z,35.92
2019-05-26T01:01:38.493Z,35.92
2019-05-26T01:02:38.482Z,36.02
2019-05-26T01:03:38.475Z,35.92
2019-05-26T01:04:38.458Z,36.02
2019-05-26T01:05:38.486Z,35.22
2019-05-26T01:06:38.438Z,35.13
2019-05-26T01:07:38.427Z,35.92
2019-05-26T01:08:38.415Z,35.92
2019-05-26T01:09:38.404Z,35.42
2019-05-26T01:10:38.393Z,36.02
2019-05-26T01:11:38.416Z,35.92
2019-05-26T01:12:38.370Z,35.92
2019-05-26T01:13:38.358Z,35.92
2019-05-26T01:14:38.346Z,35.92
2019-05-26T01:15:38.337Z,36.22
2019-05-26T01:16:38.324Z,35.92
2019-05-26T01:17:38.351Z,36.02
2019-05-26T01:18:38.304Z,36.02
2019-05-26T01:19:38.292Z,35.92
2019-05-26T01:20:38.279Z,36.22
2019-05-26T01:21:38.269Z,36.02
2019-05-26T01:22:38.260Z,36.02
2019-05-26T01:23:38.277Z,35.92
2019-05-26T01:24:38.234Z,35.72
2019-05-26T01:25:38.224Z,36.02
2019-05-26T01:26:38.211Z,35.72
2019-05-26T01:27:38.204Z,36.22
2019-05-26T01:28:38.189Z,35.82
2019-05-26T01:29:38.184Z,36.22
2019-05-26T01:30:38.171Z,35.92
2019-05-26T01:31:38.178Z,35.82
2019-05-26T01:32:38.145Z,35.82
2019-05-26T01:33:38.134Z,35.82
2019-05-26T01:34:38.121Z,35.92
2019-05-26T01:35:38.121Z,35.92
2019-05-26T01:36:38.100Z,36.02
2019-05-26T01:37:38.088Z,35.92
2019-05-26T01:38:38.078Z,36.22
2019-05-26T01:39:38.065Z,35.92
2019-05-26T01:40:38.056Z,35.92
2019-05-26T01:41:38.053Z,35.92
2019-05-26T01:42:38.081Z,35.92
2019-05-26T01:43:38.021Z,35.92
2019-05-26T01:44:38.010Z,35.72
2019-05-26T01:45:38.000Z,35.92
2019-05-26T01:46:37.989Z,35.92
2019-05-26T01:47:37.983Z,36.22
2019-05-26T01:48:37.964Z,36.22
2019-05-26T01:49:37.952Z,35.92
2019-05-26T01:50:37.942Z,35.72
2019-05-26T01:51:37.931Z,35.72
2019-05-26T01:52:37.924Z,35.92
2019-05-26T01:53:37.927Z,35.72
2019-05-26T01:54:40.702Z,35.82
2019-05-26T01:55:37.886Z,35.52
2019-05-26T01:56:37.873Z,36.02
2019-05-26T01:57:37.922Z,36.22
2019-05-26T01:58:37.851Z,35.92
2019-05-26T01:59:37.847Z,35.24
2019-05-26T02:00:37.828Z,35.92
2019-05-26T02:01:37.818Z,35.92
2019-05-26T02:02:37.806Z,36.12
2019-05-26T02:03:37.799Z,36.22
2019-05-26T02:04:37.784Z,36.24
2019-05-26T02:05:37.784Z,35.82
2019-05-26T02:06:37.761Z,36.22
2019-05-26T02:07:37.761Z,36.04
2019-05-26T02:08:39.654Z,36.12
2019-05-26T02:09:37.727Z,35.84
2019-05-26T02:10:37.716Z,35.42
2019-05-26T02:11:37.715Z,35.74
2019-05-26T02:12:37.697Z,35.34
2019-05-26T02:13:37.682Z,36.02
2019-05-26T02:14:37.673Z,36.12
2019-05-26T02:15:37.661Z,35.82
2019-05-26T02:16:37.648Z,35.42
2019-05-26T02:17:37.738Z,35.72
2019-05-26T02:18:37.628Z,35.74
2019-05-26T02:19:37.618Z,35.84
2019-05-26T02:20:37.603Z,36.02
2019-05-26T02:21:37.596Z,35.94
2019-05-26T02:22:37.581Z,35.72
2019-05-26T02:23:37.576Z,35.94
2019-05-26T02:24:37.558Z,35.72
2019-05-26T02:25:37.548Z,36.24
2019-05-26T02:26:37.536Z,35.74
2019-05-26T02:27:37.525Z,36.14
2019-05-26T02:28:37.513Z,36.04
2019-05-26T02:29:37.510Z,35.74
2019-05-26T02:30:37.491Z,35.72
2019-05-26T02:31:37.483Z,35.74
2019-05-26T02:32:37.471Z,36.22
2019-05-26T02:33:37.461Z,35.94
2019-05-26T02:34:37.446Z,36.04
2019-05-26T02:35:37.470Z,35.74
2019-05-26T02:36:37.425Z,35.74
2019-05-26T02:37:37.422Z,35.24
2019-05-26T02:38:37.404Z,35.74
2019-05-26T02:39:37.422Z,35.64
2019-05-26T02:40:37.381Z,35.54
2019-05-26T02:41:37.406Z,35.24
2019-05-26T02:42:37.365Z,36.04
2019-05-26T02:43:37.351Z,36.02
2019-05-26T02:44:37.335Z,35.54
2019-05-26T02:45:37.323Z,35.74
2019-05-26T02:46:37.325Z,36.04
2019-05-26T02:47:37.313Z,35.24
2019-05-26T02:48:37.295Z,35.84
2019-05-26T02:49:37.276Z,36.04
2019-05-26T02:50:37.275Z,35.92
2019-05-26T02:51:37.262Z,36.04
2019-05-26T02:52:37.341Z,35.84
2019-05-26T02:53:37.242Z,35.84
2019-05-26T02:54:37.224Z,36.04
2019-05-26T02:55:37.219Z,35.94
2019-05-26T02:56:37.202Z,36.14
2019-05-26T02:57:37.186Z,35.94
2019-05-26T02:58:37.177Z,35.74
2019-05-26T02:59:37.183Z,35.94
2019-05-26T03:00:37.161Z,36.04
2019-05-26T03:01:37.149Z,36.04
2019-05-26T03:02:37.138Z,36.04
2019-05-26T03:03:37.121Z,35.72
2019-05-26T03:04:37.108Z,36.04
2019-05-26T03:05:37.118Z,35.74
2019-05-26T03:06:37.097Z,35.94
2019-05-26T03:07:37.076Z,36.14
2019-05-26T03:08:37.065Z,35.94
2019-05-26T03:09:37.068Z,35.84
2019-05-26T03:10:37.043Z,35.64
2019-05-26T03:11:37.038Z,35.84
2019-05-26T03:12:37.019Z,35.94
2019-05-26T03:13:37.008Z,36.04
2019-05-26T03:14:36.997Z,36.04
2019-05-26T03:15:36.987Z,36.04
2019-05-26T03:16:36.972Z,36.24
2019-05-26T03:17:36.993Z,35.44
2019-05-26T03:18:36.950Z,35.74
2019-05-26T03:19:36.942Z,35.84
2019-05-26T03:20:36.929Z,35.84
2019-05-26T03:21:36.917Z,35.94
2019-05-26T03:22:36.958Z,36.02
2019-05-26T03:23:36.906Z,35.94
2019-05-26T03:24:36.899Z,36.22
2019-05-26T03:25:36.882Z,35.84
2019-05-26T03:26:36.871Z,35.44
2019-05-26T03:27:36.855Z,35.94
2019-05-26T03:28:36.839Z,36.04
2019-05-26T03:29:36.839Z,35.94
2019-05-26T03:30:36.817Z,35.94
2019-05-26T03:31:36.811Z,36.04
2019-05-26T03:32:36.798Z,35.94
2019-05-26T03:33:36.783Z,35.94
2019-05-26T03:34:36.784Z,35.44
2019-05-26T03:35:36.780Z,35.44
2019-05-26T03:36:36.754Z,35.84
2019-05-26T03:37:36.745Z,35.94
2019-05-26T03:38:36.732Z,36.04
2019-05-26T03:39:44.517Z,35.94
2019-05-26T03:40:37.719Z,36.14
2019-05-26T03:41:36.693Z,35.34
2019-05-26T03:42:36.683Z,35.94
2019-05-26T03:43:36.669Z,35.94
2019-05-26T03:44:36.660Z,36.14
2019-05-26T03:45:36.649Z,35.94
2019-05-26T03:46:36.647Z,35.94
2019-05-26T03:47:36.624Z,35.94
2019-05-26T03:48:36.617Z,35.84
2019-05-26T03:49:36.629Z,35.14
2019-05-26T03:50:36.592Z,35.94
2019-05-26T03:51:36.586Z,36.14
2019-05-26T03:52:36.596Z,35.84
2019-05-26T03:53:36.556Z,35.84
2019-05-26T03:54:36.550Z,36.14
2019-05-26T03:55:36.535Z,35.84
2019-05-26T03:56:36.529Z,36.04
2019-05-26T03:57:36.529Z,35.34
2019-05-26T03:58:36.511Z,35.24
2019-05-26T03:59:36.493Z,36.14
2019-05-26T04:00:36.479Z,36.14
2019-05-26T04:01:36.466Z,35.94
2019-05-26T04:02:36.462Z,36.14
2019-05-26T04:03:36.447Z,36.04
2019-05-26T04:04:36.454Z,36.02
2019-05-26T04:05:36.422Z,35.94
2019-05-26T04:06:36.412Z,36.22
2019-05-26T04:07:36.406Z,35.94
2019-05-26T04:08:36.389Z,36.04
2019-05-26T04:09:36.377Z,36.34
2019-05-26T04:10:36.372Z,35.94
2019-05-26T04:11:36.364Z,36.14
2019-05-26T04:12:36.346Z,36.12
2019-05-26T04:13:36.334Z,35.24
2019-05-26T04:14:36.319Z,35.94
2019-05-26T04:15:36.310Z,35.94
2019-05-26T04:16:36.308Z,36.04
2019-05-26T04:17:36.318Z,36.04
2019-05-26T04:18:36.275Z,36.04
2019-05-26T04:19:36.264Z,36.02
2019-05-26T04:20:36.252Z,36.44
2019-05-26T04:21:36.242Z,35.13
2019-05-26T04:22:36.253Z,36.44
2019-05-26T04:23:36.223Z,36.44
2019-05-26T04:24:36.207Z,36.04
2019-05-26T04:25:36.197Z,36.04
2019-05-26T04:26:36.197Z,36.34
2019-05-26T04:27:36.180Z,36.34
2019-05-26T04:28:36.176Z,36.34
2019-05-26T04:29:36.153Z,36.44
2019-05-26T04:30:36.141Z,36.32
2019-05-26T04:31:36.129Z,36.44
2019-05-26T04:32:36.120Z,36.54
2019-05-26T04:33:36.108Z,36.44
2019-05-26T04:34:36.115Z,36.54
2019-05-26T04:35:36.086Z,36.24
2019-05-26T04:36:36.083Z,36.44
2019-05-26T04:37:36.072Z,36.34
2019-05-26T04:38:36.049Z,36.34
2019-05-26T04:39:36.044Z,36.44
2019-05-26T04:40:36.034Z,36.54
2019-05-26T04:41:36.016Z,36.32
2019-05-26T04:42:36.011Z,36.24
2019-05-26T04:43:35.993Z,36.52
2019-05-26T04:44:35.991Z,36.34
2019-05-26T04:45:35.973Z,35.13
2019-05-26T04:46:35.977Z,36.44
2019-05-26T04:47:35.950Z,36.44
2019-05-26T04:48:35.940Z,36.34
2019-05-26T04:49:37.599Z,36.34
2019-05-26T04:50:35.916Z,36.24
2019-05-26T04:51:35.908Z,36.34
2019-05-26T04:52:35.903Z,36.32
2019-05-26T04:53:35.894Z,35.74
2019-05-26T04:54:35.872Z,36.22
2019-05-26T04:55:35.857Z,36.32
2019-05-26T04:56:35.847Z,36.32
2019-05-26T04:57:35.854Z,36.34
2019-05-26T04:58:35.832Z,36.24
2019-05-26T04:59:35.813Z,36.24
2019-05-26T05:00:35.817Z,36.34
2019-05-26T05:01:35.792Z,36.04
2019-05-26T05:02:35.790Z,36.04
2019-05-26T05:03:35.768Z,36.54
2019-05-26T05:04:35.767Z,36.14
2019-05-26T05:05:35.750Z,36.14
2019-05-26T05:06:35.736Z,36.34
2019-05-26T05:07:35.726Z,36.22
2019-05-26T05:08:35.712Z,36.14
2019-05-26T05:09:35.702Z,36.22
2019-05-26T05:10:42.233Z,36.14
2019-05-26T05:11:36.677Z,36.02
2019-05-26T05:12:35.668Z,36.24
2019-05-26T05:13:35.654Z,36.04
2019-05-26T05:14:35.655Z,35.92
2019-05-26T05:15:35.632Z,36.24
2019-05-26T05:16:35.629Z,35.94
2019-05-26T05:17:35.610Z,36.44
2019-05-26T05:18:35.598Z,36.22
2019-05-26T05:19:35.589Z,36.04
2019-05-26T05:20:35.580Z,36.42
2019-05-26T05:21:35.595Z,36.24
2019-05-26T05:22:35.560Z,36.22
2019-05-26T05:23:35.542Z,36.42
2019-05-26T05:24:35.532Z,36.24
2019-05-26T05:25:35.522Z,36.54
2019-05-26T05:26:35.515Z,36.42
2019-05-26T05:27:35.496Z,36.14
2019-05-26T05:28:35.495Z,36.44
2019-05-26T05:29:35.476Z,36.42
2019-05-26T05:30:35.464Z,36.44
2019-05-26T05:31:35.453Z,36.12
2019-05-26T05:32:35.442Z,35.92
2019-05-26T05:33:35.429Z,36.12
2019-05-26T05:34:35.424Z,36.42
2019-05-26T05:35:35.409Z,35.92
2019-05-26T05:36:35.398Z,36.32
2019-05-26T05:37:35.385Z,35.82
2019-05-26T05:38:35.373Z,36.42
2019-05-26T05:39:35.368Z,35.82
2019-05-26T05:40:35.372Z,36.22
2019-05-26T05:41:35.340Z,36.02
2019-05-26T05:42:35.330Z,35.82
2019-05-26T05:43:35.318Z,35.92
2019-05-26T05:44:35.305Z,35.82
2019-05-26T05:45:35.302Z,35.82
2019-05-26T05:46:35.293Z,35.63
2019-05-26T05:47:35.272Z,35.82
2019-05-26T05:48:35.261Z,35.72
2019-05-26T05:49:35.250Z,35.82
2019-05-26T05:50:38.932Z,36.22
2019-05-26T05:51:35.233Z,35.82
2019-05-26T05:52:35.234Z,35.72
2019-05-26T05:53:35.205Z,35.72
2019-05-26T05:54:35.197Z,35.72
2019-05-26T05:55:35.185Z,35.72
2019-05-26T05:56:35.171Z,36.02
2019-05-26T05:57:35.161Z,35.72
2019-05-26T05:58:35.156Z,35.72
2019-05-26T05:59:35.138Z,36.12
2019-05-26T06:00:35.127Z,36.22
2019-05-26T06:01:35.116Z,35.63
2019-05-26T06:02:35.112Z,36.22
2019-05-26T06:03:35.094Z,35.72
2019-05-26T06:04:35.094Z,36.22
2019-05-26T06:05:35.069Z,36.12
2019-05-26T06:06:35.060Z,35.82
2019-05-26T06:07:35.049Z,36.12
2019-05-26T06:08:35.038Z,36.22
2019-05-26T06:09:35.026Z,36.12
2019-05-26T06:10:35.037Z,35.72
2019-05-26T06:11:35.003Z,35.63
2019-05-26T06:12:34.991Z,35.72
2019-05-26T06:13:34.980Z,36.12
2019-05-26T06:14:34.971Z,35.82
2019-05-26T06:15:34.959Z,35.82
2019-05-26T06:16:34.954Z,35.92
2019-05-26T06:17:34.935Z,36.22
2019-05-26T06:18:34.923Z,35.92
2019-05-26T06:19:34.912Z,36.02
2019-05-26T06:20:34.902Z,35.42
2019-05-26T06:21:34.891Z,35.92
2019-05-26T06:22:34.886Z,35.92
2019-05-26T06:23:36.968Z,36.12
2019-05-26T06:24:34.862Z,36.02
2019-05-26T06:25:34.845Z,35.92
2019-05-26T06:26:34.837Z,36.12
2019-05-26T06:27:34.823Z,36.02
2019-05-26T06:28:34.819Z,35.33
2019-05-26T06:29:34.829Z,35.42
2019-05-26T06:30:34.793Z,35.42
2019-05-26T06:31:34.932Z,36.02
2019-05-26T06:32:34.770Z,35.52
2019-05-26T06:33:34.755Z,36.12
2019-05-26T06:34:34.751Z,35.92
2019-05-26T06:35:34.736Z,35.82
2019-05-26T06:36:34.722Z,35.82
2019-05-26T06:37:34.710Z,36.22
2019-05-26T06:38:34.699Z,36.12
2019-05-26T06:39:34.688Z,34.92
2019-05-26T06:40:34.696Z,35.52
2019-05-26T06:41:34.670Z,35.92
2019-05-26T06:42:34.659Z,35.82
2019-05-26T06:43:34.642Z,35.33
2019-05-26T06:44:52.084Z,35.63
2019-05-26T06:45:35.626Z,35.63
2019-05-26T06:46:34.609Z,35.63
2019-05-26T06:47:34.597Z,35.33
2019-05-26T06:48:34.587Z,35.52
2019-05-26T06:49:34.574Z,35.92
2019-05-26T06:50:34.563Z,35.91
2019-05-26T06:51:34.561Z,35.92
2019-05-26T06:52:34.541Z,35.92
2019-05-26T06:53:37.317Z,35.92
2019-05-26T06:54:34.519Z,35.82
2019-05-26T06:55:34.507Z,35.31
2019-05-26T06:56:34.497Z,35.92
2019-05-26T06:57:34.493Z,35.33
2019-05-26T06:58:34.476Z,35.33
2019-05-26T06:59:34.465Z,35.63
2019-05-26T07:00:34.454Z,35.82
2019-05-26T07:01:34.441Z,35.33
2019-05-26T07:02:34.448Z,35.92
2019-05-26T07:03:34.425Z,34.83
2019-05-26T07:04:34.408Z,35.22
2019-05-26T07:05:34.398Z,35.52
2019-05-26T07:06:34.386Z,35.42
2019-05-26T07:07:34.372Z,35.22
2019-05-26T07:08:34.365Z,35.82
2019-05-26T07:09:34.356Z,35.82
2019-05-26T07:10:34.341Z,35.63
2019-05-26T07:11:49.983Z,35.82
2019-05-26T07:12:35.316Z,35.61
2019-05-26T07:13:34.306Z,35.82
2019-05-26T07:14:34.293Z,35.03
2019-05-26T07:15:34.290Z,35.63
2019-05-26T07:16:38.075Z,35.31
2019-05-26T07:17:34.261Z,35.52
2019-05-26T07:18:34.248Z,34.71
2019-05-26T07:19:34.241Z,35.82
2019-05-26T07:20:34.226Z,35.91
2019-05-26T07:21:34.242Z,35.63
2019-05-26T07:22:34.209Z,35.72
2019-05-26T07:23:34.192Z,34.91
2019-05-26T07:24:34.183Z,35.91
2019-05-26T07:25:34.169Z,35.82
2019-05-26T07:26:34.160Z,35.11
2019-05-26T07:27:34.159Z,35.11
2019-05-26T07:28:34.137Z,35.11
2019-05-26T07:29:34.125Z,35.92
2019-05-26T07:30:34.114Z,34.91
2019-05-26T07:31:34.102Z,34.83
2019-05-26T07:32:34.094Z,35.03
2019-05-26T07:33:34.091Z,35.22
2019-05-26T07:34:34.073Z,35.13
2019-05-26T07:35:34.058Z,35.03
2019-05-26T07:36:34.046Z,35.01
2019-05-26T07:37:34.036Z,35.50
2019-05-26T07:38:34.024Z,35.11
2019-05-26T07:39:34.023Z,34.91
2019-05-26T07:40:34.005Z,35.31
2019-05-26T07:41:33.991Z,35.01
2019-05-26T07:42:33.980Z,35.03
2019-05-26T07:43:33.972Z,35.21
2019-05-26T07:44:33.956Z,35.21
2019-05-26T07:45:33.953Z,35.31
2019-05-26T07:46:33.935Z,35.21
2019-05-26T07:47:33.925Z,35.31
2019-05-26T07:48:36.029Z,35.31
2019-05-26T07:49:33.904Z,35.31
2019-05-26T07:50:33.890Z,35.41
2019-05-26T07:51:33.889Z,34.91
2019-05-26T07:52:33.867Z,35.31
2019-05-26T07:53:33.856Z,35.11
2019-05-26T07:54:33.845Z,35.01
2019-05-26T07:55:33.834Z,35.11
2019-05-26T07:56:33.823Z,35.01
2019-05-26T07:57:33.822Z,35.21
2019-05-26T07:58:33.805Z,35.21
2019-05-26T07:59:33.792Z,35.21
2019-05-26T08:00:33.778Z,35.21
2019-05-26T08:01:36.373Z,35.11
2019-05-26T08:02:33.756Z,35.41
2019-05-26T08:03:33.755Z,35.11
2019-05-26T08:04:33.736Z,35.11
2019-05-26T08:05:33.723Z,35.59
2019-05-26T08:06:33.712Z,35.11
2019-05-26T08:07:33.701Z,35.80
2019-05-26T08:08:33.691Z,35.61
2019-05-26T08:09:33.686Z,35.80
2019-05-26T08:10:33.667Z,35.61
2019-05-26T08:11:33.670Z,35.61
2019-05-26T08:12:33.644Z,35.69
2019-05-26T08:13:33.633Z,35.59
2019-05-26T08:14:33.623Z,35.11
2019-05-26T08:15:33.618Z,35.71
2019-05-26T08:16:33.602Z,35.31
2019-05-26T08:17:33.589Z,35.61
2019-05-26T08:18:33.577Z,35.80
2019-05-26T08:19:33.568Z,35.31
2019-05-26T08:20:33.554Z,35.11
2019-05-26T08:21:33.553Z,35.01
2019-05-26T08:22:33.554Z,35.11
2019-05-26T08:23:33.522Z,35.29
2019-05-26T08:24:33.512Z,34.61
2019-05-26T08:25:33.499Z,34.52
2019-05-26T08:26:33.488Z,34.99
2019-05-26T08:27:33.491Z,35.10
2019-05-26T08:28:33.465Z,34.99
2019-05-26T08:29:33.463Z,35.21
2019-05-26T08:30:33.445Z,34.61
2019-05-26T08:31:33.434Z,35.41
2019-05-26T08:32:33.427Z,34.50
2019-05-26T08:33:33.418Z,34.50
2019-05-26T08:34:33.398Z,34.59
2019-05-26T08:35:33.387Z,35.11
2019-05-26T08:36:33.378Z,34.99
2019-05-26T08:37:33.366Z,35.39
2019-05-26T08:38:33.353Z,34.50
2019-05-26T08:39:33.371Z,34.69
2019-05-26T08:40:33.338Z,34.59
2019-05-26T08:41:33.321Z,34.59
2019-05-26T08:42:44.057Z,34.40
2019-05-26T08:43:34.296Z,34.59
2019-05-26T08:44:33.292Z,34.69
2019-05-26T08:45:33.283Z,34.80
2019-05-26T08:46:33.264Z,35.39
2019-05-26T08:47:33.253Z,34.80
2019-05-26T08:48:33.245Z,34.80
2019-05-26T08:49:33.234Z,34.40
2019-05-26T08:50:34.482Z,34.59
2019-05-26T08:51:33.215Z,34.69
2019-05-26T08:52:33.196Z,34.59
2019-05-26T08:53:33.189Z,35.10
2019-05-26T08:54:33.175Z,34.40
2019-05-26T08:55:33.163Z,34.59
2019-05-26T08:56:33.154Z,34.69
2019-05-26T08:57:33.148Z,34.99
2019-05-26T08:58:33.130Z,34.80
2019-05-26T08:59:33.119Z,34.50
2019-05-26T09:00:33.113Z,35.10
2019-05-26T09:01:33.103Z,34.99
2019-05-26T09:02:33.087Z,34.89
2019-05-26T09:03:33.081Z,34.69
2019-05-26T09:04:33.065Z,34.89
2019-05-26T09:05:33.083Z,34.69
2019-05-26T09:06:33.040Z,34.59
2019-05-26T09:07:33.031Z,35.10
2019-05-26T09:08:33.029Z,35.10
2019-05-26T09:09:33.018Z,34.89
2019-05-26T09:10:32.994Z,35.10
2019-05-26T09:11:32.984Z,34.89
2019-05-26T09:12:32.975Z,35.17
2019-05-26T09:13:32.968Z,34.99
2019-05-26T09:14:32.953Z,35.17
2019-05-26T09:15:32.947Z,34.99
2019-05-26T09:16:32.930Z,35.17
2019-05-26T09:17:32.917Z,35.08
2019-05-26T09:18:32.907Z,34.78
2019-05-26T09:19:32.900Z,35.19
2019-05-26T09:20:32.890Z,35.29
2019-05-26T09:21:32.881Z,34.78
2019-05-26T09:22:32.873Z,34.78
2019-05-26T09:23:32.855Z,34.98
2019-05-26T09:24:32.846Z,34.98
2019-05-26T09:25:32.833Z,34.98
2019-05-26T09:26:32.823Z,34.98
2019-05-26T09:27:32.823Z,35.08
2019-05-26T09:28:32.794Z,35.27
2019-05-26T09:29:32.786Z,35.08
2019-05-26T09:30:32.774Z,35.27
2019-05-26T09:31:34.221Z,34.98
2019-05-26T09:32:32.753Z,35.27
2019-05-26T09:33:32.775Z,35.17
2019-05-26T09:34:32.728Z,35.29
2019-05-26T09:35:32.715Z,34.88
2019-05-26T09:36:32.706Z,35.08
2019-05-26T09:37:32.695Z,35.17
2019-05-26T09:38:32.683Z,35.27
2019-05-26T09:39:32.707Z,35.08
2019-05-26T09:40:32.663Z,35.17
2019-05-26T09:41:32.649Z,35.17
2019-05-26T09:42:32.639Z,35.27
2019-05-26T09:43:32.628Z,35.08
2019-05-26T09:44:32.618Z,35.08
2019-05-26T09:45:32.625Z,35.46
2019-05-26T09:46:32.596Z,35.47
2019-05-26T09:47:32.583Z,35.27
2019-05-26T09:48:32.571Z,34.68
2019-05-26T09:49:32.560Z,34.48
2019-05-26T09:50:32.549Z,34.68
2019-05-26T09:51:32.544Z,34.48
2019-05-26T09:52:32.527Z,34.68
2019-05-26T09:53:32.515Z,34.48
2019-05-26T09:54:32.503Z,34.46
2019-05-26T09:55:32.494Z,34.46
2019-05-26T09:56:32.482Z,34.68
2019-05-26T09:57:32.477Z,34.48
2019-05-26T09:58:32.462Z,34.48
2019-05-26T09:59:32.449Z,34.66
2019-05-26T10:00:32.437Z,34.68
2019-05-26T10:01:32.440Z,35.06
2019-05-26T10:02:32.415Z,34.96
2019-05-26T10:03:32.411Z,34.86
2019-05-26T10:04:32.395Z,34.96
2019-05-26T10:05:32.382Z,34.86
2019-05-26T10:06:32.370Z,34.96
2019-05-26T10:07:32.362Z,34.86
2019-05-26T10:08:32.351Z,34.96
2019-05-26T10:09:32.345Z,34.96
2019-05-26T10:10:32.325Z,34.76
2019-05-26T10:11:32.318Z,34.46
2019-05-26T10:12:32.303Z,34.86
2019-05-26T10:13:32.421Z,34.76
2019-05-26T10:14:32.281Z,34.76
2019-05-26T10:15:32.298Z,34.76
2019-05-26T10:16:32.263Z,34.56
2019-05-26T10:17:32.247Z,34.56
2019-05-26T10:18:32.239Z,34.56
2019-05-26T10:19:32.226Z,34.76
2019-05-26T10:20:32.214Z,34.76
2019-05-26T10:21:32.209Z,34.36
2019-05-26T10:22:32.193Z,34.86
2019-05-26T10:23:32.180Z,35.16
2019-05-26T10:24:32.170Z,34.56
2019-05-26T10:25:32.165Z,34.56
2019-05-26T10:26:32.155Z,34.36
2019-05-26T10:27:32.149Z,34.46
2019-05-26T10:28:32.125Z,34.96
2019-05-26T10:29:32.115Z,34.96
2019-05-26T10:30:32.103Z,34.56
2019-05-26T10:31:32.095Z,34.56
2019-05-26T10:32:32.082Z,34.46
2019-05-26T10:33:32.075Z,34.66
2019-05-26T10:34:32.058Z,34.96
2019-05-26T10:35:32.049Z,34.96
2019-05-26T10:36:32.037Z,34.96
2019-05-26T10:37:32.026Z,34.17
2019-05-26T10:38:32.013Z,34.66
2019-05-26T10:39:32.011Z,34.66
2019-05-26T10:40:31.992Z,34.86
2019-05-26T10:41:31.980Z,34.56
2019-05-26T10:42:31.970Z,34.36
2019-05-26T10:43:46.261Z,34.86
2019-05-26T10:44:32.966Z,34.96
2019-05-26T10:45:34.271Z,34.46
2019-05-26T10:46:31.928Z,34.46
2019-05-26T10:47:31.914Z,34.76
2019-05-26T10:48:31.905Z,34.45
2019-05-26T10:49:31.892Z,34.34
2019-05-26T10:50:31.887Z,34.76
2019-05-26T10:51:31.872Z,34.96
2019-05-26T10:52:31.857Z,34.96
2019-05-26T10:53:31.846Z,34.86
2019-05-26T10:54:31.835Z,34.96
2019-05-26T10:55:31.824Z,34.46
2019-05-26T10:56:31.821Z,34.34
2019-05-26T10:57:31.803Z,34.27
2019-05-26T10:58:31.791Z,34.46
2019-05-26T10:59:31.781Z,34.56
2019-05-26T11:00:33.155Z,34.25
2019-05-26T11:01:31.759Z,34.64
2019-05-26T11:02:31.754Z,34.25
2019-05-26T11:03:31.739Z,34.15
2019-05-26T11:04:31.725Z,34.74
2019-05-26T11:05:31.711Z,34.15
2019-05-26T11:06:31.701Z,34.74
2019-05-26T11:07:31.692Z,34.34
2019-05-26T11:08:31.712Z,34.64
2019-05-26T11:09:31.669Z,34.34
2019-05-26T11:10:31.659Z,34.34
2019-05-26T11:11:31.645Z,34.34
2019-05-26T11:12:31.635Z,34.25
2019-05-26T11:13:31.626Z,34.15
2019-05-26T11:14:31.640Z,34.34
2019-05-26T11:15:31.603Z,34.34
2019-05-26T11:16:31.590Z,34.45
2019-05-26T11:17:31.579Z,34.34
2019-05-26T11:18:31.571Z,34.64
2019-05-26T11:19:31.555Z,34.64
2019-05-26T11:20:31.552Z,34.34
2019-05-26T11:21:31.539Z,34.15
2019-05-26T11:22:31.523Z,34.34
2019-05-26T11:23:31.558Z,34.25
2019-05-26T11:24:31.500Z,34.34
2019-05-26T11:25:31.490Z,34.45
2019-05-26T11:26:31.486Z,34.34
2019-05-26T11:27:31.467Z,34.34
2019-05-26T11:28:31.458Z,34.34
2019-05-26T11:29:31.445Z,34.34
2019-05-26T11:30:31.433Z,34.25
2019-05-26T11:31:31.425Z,34.34
2019-05-26T11:32:31.421Z,34.34
2019-05-26T11:33:31.400Z,34.25
2019-05-26T11:34:31.392Z,34.05
2019-05-26T11:35:31.384Z,34.25
2019-05-26T11:36:31.379Z,33.45
2019-05-26T11:37:31.355Z,34.15
2019-05-26T11:38:33.638Z,34.15
2019-05-26T11:39:31.336Z,34.25
2019-05-26T11:40:31.324Z,33.36
2019-05-26T11:41:31.311Z,34.05
2019-05-26T11:42:31.299Z,34.15
2019-05-26T11:43:31.289Z,33.45
2019-05-26T11:44:31.296Z,34.25
2019-05-26T11:45:31.267Z,34.15
2019-05-26T11:46:31.259Z,34.55
2019-05-26T11:47:31.249Z,34.25
2019-05-26T11:48:31.233Z,34.45
2019-05-26T11:49:31.221Z,34.55
2019-05-26T11:50:31.219Z,33.75
2019-05-26T11:51:31.200Z,33.75
2019-05-26T11:52:31.190Z,33.64
2019-05-26T11:53:31.212Z,33.64
2019-05-26T11:54:34.305Z,33.64
2019-05-26T11:55:31.154Z,33.54
2019-05-26T11:56:31.151Z,33.44
2019-05-26T11:57:31.140Z,33.54
2019-05-26T11:58:31.128Z,33.54
2019-05-26T11:59:31.141Z,33.73
2019-05-26T12:00:31.099Z,33.44
2019-05-26T12:01:31.091Z,33.64
2019-05-26T12:02:31.083Z,33.34
2019-05-26T12:03:31.077Z,33.73
2019-05-26T12:04:31.055Z,33.64
2019-05-26T12:05:31.042Z,34.03
2019-05-26T12:06:31.035Z,33.44
2019-05-26T12:07:31.097Z,33.42
2019-05-26T12:08:31.018Z,33.92
2019-05-26T12:09:31.005Z,33.33
2019-05-26T12:10:30.986Z,33.33
2019-05-26T12:11:30.977Z,33.92
2019-05-26T12:12:30.965Z,33.42
2019-05-26T12:13:30.955Z,33.42
2019-05-26T12:14:34.923Z,34.01
2019-05-26T12:15:30.932Z,33.33
2019-05-26T12:16:30.923Z,33.92
2019-05-26T12:17:30.909Z,33.42
2019-05-26T12:18:30.900Z,33.82
2019-05-26T12:19:30.887Z,33.92
2019-05-26T12:20:30.883Z,33.82
2019-05-26T12:21:30.868Z,33.92
2019-05-26T12:22:30.853Z,33.42
2019-05-26T12:23:30.843Z,33.52
2019-05-26T12:24:30.835Z,33.92
2019-05-26T12:25:30.820Z,33.33
2019-05-26T12:26:30.817Z,33.33
2019-05-26T12:27:30.797Z,33.33
2019-05-26T12:28:30.787Z,32.93
2019-05-26T12:29:30.775Z,33.72
2019-05-26T12:30:30.763Z,33.22
2019-05-26T12:31:30.753Z,33.03
2019-05-26T12:32:30.749Z,33.92
2019-05-26T12:33:30.733Z,32.93
2019-05-26T12:34:30.719Z,32.93
2019-05-26T12:35:30.709Z,33.12
2019-05-26T12:36:30.700Z,32.91
2019-05-26T12:37:30.687Z,32.93
2019-05-26T12:38:30.686Z,32.82
2019-05-26T12:39:30.665Z,33.03
2019-05-26T12:40:30.653Z,33.01
2019-05-26T12:41:33.227Z,32.93
2019-05-26T12:42:31.629Z,33.03
2019-05-26T12:43:30.618Z,33.03
2019-05-26T12:44:30.628Z,33.52
2019-05-26T12:45:30.596Z,33.11
2019-05-26T12:46:30.585Z,33.03
2019-05-26T12:47:30.575Z,33.42
2019-05-26T12:48:30.563Z,33.50
2019-05-26T12:49:30.552Z,33.42
2019-05-26T12:50:30.548Z,33.52
2019-05-26T12:51:30.534Z,33.01
2019-05-26T12:52:30.520Z,33.03